createdAt,value
2019-05-29T00:00:38.993Z,97545.34
2019-05-29T00:03:12.449Z,97543.23
2019-05-29T00:05:44.810Z,97543.48
2019-05-29T00:08:18.531Z,97548.51
2019-05-29T00:10:50.759Z,97548.13
2019-05-29T00:13:23.503Z,97550.86
2019-05-29T00:15:56.260Z,97553.82
2019-05-29T00:18:29.008Z,97553.02
2019-05-29T00:21:01.279Z,97547.29
2019-05-29T00:23:33.525Z,97550.34
2019-05-29T00:26:10.397Z,97551.80
2019-05-29T00:28:43.565Z,97548.81
2019-05-29T00:31:15.811Z,97553.77
2019-05-29T00:33:48.773Z,97554.55
2019-05-29T00:36:21.013Z,97551.80
2019-05-29T00:38:53.302Z,97553.58
2019-05-29T00:41:26.007Z,97556.19
2019-05-29T00:43:58.340Z,97557.15
2019-05-29T00:46:30.573Z,97560.05
2019-05-29T00:49:02.961Z,97557.98
2019-05-29T00:51:35.640Z,97560.40
2019-05-29T00:54:08.273Z,97561.59
2019-05-29T00:56:41.144Z,97560.49
2019-05-29T00:59:15.074Z,97563.58
2019-05-29T01:01:47.793Z,97562.80
2019-05-29T01:04:20.097Z,97559.62
2019-05-29T01:06:52.328Z,97557.59
2019-05-29T01:09:24.608Z,97565.44
2019-05-29T01:11:56.912Z,97567.65
2019-05-29T01:14:29.194Z,97568.27
2019-05-29T01:17:01.526Z,97571.39
2019-05-29T01:19:33.933Z,97576.27
2019-05-29T01:22:06.277Z,97585.91
2019-05-29T01:24:38.562Z,97587.53
2019-05-29T01:27:10.812Z,97593.03
2019-05-29T01:29:43.110Z,97596.34
2019-05-29T01:32:15.563Z,97598.60
2019-05-29T01:34:47.840Z,97599.63
2019-05-29T01:37:20.536Z,97603.25
2019-05-29T01:39:52.823Z,97608.72
2019-05-29T01:42:25.407Z,97615.20
2019-05-29T01:45:07.699Z,97616.03
2019-05-29T01:47:31.595Z,97617.45
2019-05-29T01:50:03.998Z,97624.02
2019-05-29T01:52:36.292Z,97623.92
2019-05-29T01:55:09.365Z,97626.76
2019-05-29T01:57:42.436Z,97628.02
2019-05-29T02:00:15.789Z,97627.34
2019-05-29T02:02:48.079Z,97632.69
2019-05-29T02:05:22.035Z,97630.08
2019-05-29T02:07:54.416Z,97639.57
2019-05-29T02:10:27.626Z,97638.89
2019-05-29T02:13:00.374Z,97646.27
2019-05-29T02:15:34.151Z,97648.63
2019-05-29T02:18:07.293Z,97647.09
2019-05-29T02:20:39.592Z,97647.25
2019-05-29T02:23:11.903Z,97650.66
2019-05-29T02:25:44.189Z,97653.58
2019-05-29T02:28:16.961Z,97654.47
2019-05-29T02:30:49.749Z,97659.23
2019-05-29T02:33:22.562Z,97655.16
2019-05-29T02:35:55.911Z,97660.63
2019-05-29T02:38:29.133Z,97659.41
2019-05-29T02:41:02.400Z,97655.20
2019-05-29T02:43:35.010Z,97662.42
2019-05-29T02:46:07.308Z,97665.65
2019-05-29T02:48:40.064Z,97676.70
2019-05-29T02:51:12.645Z,97671.52
2019-05-29T02:53:45.273Z,97675.73
2019-05-29T02:56:17.570Z,97675.92
2019-05-29T02:58:49.869Z,97676.67
2019-05-29T03:01:23.992Z,97685.39
2019-05-29T03:03:57.114Z,97694.14
2019-05-29T03:06:30.325Z,97695.58
2019-05-29T03:09:05.159Z,97698.73
2019-05-29T03:11:38.144Z,97704.15
2019-05-29T03:14:10.707Z,97707.05
2019-05-29T03:16:43.142Z,97709.90
2019-05-29T03:19:16.242Z,97725.55
2019-05-29T03:21:48.515Z,97719.23
2019-05-29T03:24:20.902Z,97726.57
2019-05-29T03:26:53.867Z,97730.34
2019-05-29T03:29:27.648Z,97733.41
2019-05-29T03:32:00.066Z,97736.17
2019-05-29T03:34:39.646Z,97736.89
2019-05-29T03:37:07.158Z,97737.28
2019-05-29T03:39:39.793Z,97741.17
2019-05-29T03:42:12.079Z,97743.59
2019-05-29T03:44:44.465Z,97745.40
2019-05-29T03:47:17.210Z,97747.17
2019-05-29T03:49:49.494Z,97745.40
2019-05-29T03:52:21.790Z,97753.23
2019-05-29T03:54:54.090Z,97754.36
2019-05-29T03:57:29.417Z,97756.19
2019-05-29T04:00:01.659Z,97759.02
2019-05-29T04:02:35.653Z,97763.23
2019-05-29T04:05:08.883Z,97767.59
2019-05-29T04:07:41.738Z,97774.48
2019-05-29T04:10:14.628Z,97782.49
2019-05-29T04:12:47.468Z,97784.10
2019-05-29T04:15:20.003Z,97784.89
2019-05-29T04:17:53.545Z,97791.65
2019-05-29T04:20:27.532Z,97802.92
2019-05-29T04:23:02.162Z,97805.45
2019-05-29T04:25:40.573Z,97813.69
2019-05-29T04:28:12.560Z,97817.72
2019-05-29T04:30:45.053Z,97815.66
2019-05-29T04:33:17.804Z,97823.86
2019-05-29T04:35:50.107Z,97824.56
2019-05-29T04:38:22.399Z,97824.76
2019-05-29T04:40:55.017Z,97824.48
2019-05-29T04:43:28.759Z,97825.38
2019-05-29T04:46:01.714Z,97832.84
2019-05-29T04:48:36.197Z,97838.59
2019-05-29T04:51:08.585Z,97840.08
2019-05-29T04:53:40.925Z,97845.83
2019-05-29T04:56:13.603Z,97847.72
2019-05-29T04:58:45.946Z,97852.70
2019-05-29T05:01:18.283Z,97858.28
2019-05-29T05:03:50.587Z,97859.86
2019-05-29T05:06:22.865Z,97860.65
2019-05-29T05:08:55.535Z,97865.83
2019-05-29T05:11:29.269Z,97868.55
2019-05-29T05:14:02.524Z,97873.16
2019-05-29T05:16:35.794Z,97874.05
2019-05-29T05:19:08.258Z,97879.09
2019-05-29T05:21:40.558Z,97880.15
2019-05-29T05:24:12.846Z,97885.83
2019-05-29T05:26:45.989Z,97884.64
2019-05-29T05:29:18.392Z,97886.43
2019-05-29T05:31:51.586Z,97889.83
2019-05-29T05:34:23.881Z,97900.38
2019-05-29T05:36:56.500Z,97903.23
2019-05-29T05:39:30.710Z,97906.27
2019-05-29T05:42:03.414Z,97903.41
2019-05-29T05:44:37.039Z,97905.35
2019-05-29T05:47:09.308Z,97908.53
2019-05-29T05:49:42.738Z,97911.67
2019-05-29T05:52:15.079Z,97919.35
2019-05-29T05:54:47.704Z,97922.47
2019-05-29T05:57:20.874Z,97923.04
2019-05-29T05:59:53.500Z,97926.09
2019-05-29T06:02:26.191Z,97928.17
2019-05-29T06:04:58.478Z,97930.48
2019-05-29T06:07:31.935Z,97933.88
2019-05-29T06:10:05.023Z,97932.92
2019-05-29T06:12:38.652Z,97946.56
2019-05-29T06:15:11.706Z,97939.52
2019-05-29T06:18:04.487Z,97946.49
2019-05-29T06:20:18.303Z,97942.42
2019-05-29T06:22:51.006Z,97948.02
2019-05-29T06:25:23.515Z,97948.66
2019-05-29T06:27:56.638Z,97951.89
2019-05-29T06:30:30.021Z,97952.41
2019-05-29T06:33:02.757Z,97953.66
2019-05-29T06:35:35.831Z,97955.59
2019-05-29T06:38:08.611Z,97958.81
2019-05-29T06:40:44.054Z,97964.05
2019-05-29T06:43:25.031Z,97969.03
2019-05-29T06:45:58.251Z,97972.62
2019-05-29T06:48:42.749Z,97978.22
2019-05-29T06:51:05.694Z,97979.30
2019-05-29T06:53:39.793Z,97978.11
2019-05-29T06:56:12.205Z,97990.94
2019-05-29T06:58:44.505Z,97995.48
2019-05-29T07:01:16.791Z,98006.56
2019-05-29T07:03:49.039Z,98005.04
2019-05-29T07:06:21.866Z,98009.02
2019-05-29T07:08:54.442Z,98020.47
2019-05-29T07:11:26.727Z,98026.56
2019-05-29T07:13:59.472Z,98033.55
2019-05-29T07:16:43.932Z,98037.28
2019-05-29T07:19:24.518Z,98042.10
2019-05-29T07:21:40.986Z,98050.59
2019-05-29T07:24:13.741Z,98049.46
2019-05-29T07:26:47.177Z,98052.89
2019-05-29T07:29:20.309Z,98050.09
2019-05-29T07:31:52.706Z,98054.16
2019-05-29T07:34:25.273Z,98055.82
2019-05-29T07:36:57.889Z,98055.97
2019-05-29T07:39:30.574Z,98062.50
2019-05-29T07:42:03.294Z,98068.80
2019-05-29T07:44:35.577Z,98071.94
2019-05-29T07:47:09.898Z,98071.94
2019-05-29T07:49:44.875Z,98074.13
2019-05-29T07:52:17.486Z,98080.45
2019-05-29T07:54:50.239Z,98078.20
2019-05-29T07:57:22.909Z,98086.45
2019-05-29T07:59:55.142Z,98086.20
2019-05-29T08:02:27.431Z,98088.95
2019-05-29T08:04:59.661Z,98089.18
2019-05-29T08:07:32.404Z,98092.12
2019-05-29T08:10:05.801Z,98093.09
2019-05-29T08:12:43.922Z,98101.55
2019-05-29T08:15:12.489Z,98101.15
2019-05-29T08:17:46.076Z,98100.94
2019-05-29T08:20:20.070Z,98104.80
2019-05-29T08:22:52.690Z,98107.74
2019-05-29T08:25:24.930Z,98107.78
2019-05-29T08:27:57.214Z,98114.59
2019-05-29T08:30:29.465Z,98121.38
2019-05-29T08:33:02.447Z,98125.05
2019-05-29T08:35:35.132Z,98130.01
2019-05-29T08:38:07.521Z,98132.06
2019-05-29T08:40:41.022Z,98130.98
2019-05-29T08:43:14.040Z,98134.80
2019-05-29T08:45:48.011Z,98137.09
2019-05-29T08:48:20.318Z,98137.77
2019-05-29T08:50:52.700Z,98141.44
2019-05-29T08:53:24.983Z,98140.92
2019-05-29T08:55:58.311Z,98144.94
2019-05-29T08:58:30.604Z,98148.48
2019-05-29T09:01:02.898Z,98152.12
2019-05-29T09:03:37.351Z,98155.83
2019-05-29T09:06:13.463Z,98161.02
2019-05-29T09:08:46.206Z,98164.29
2019-05-29T09:11:18.126Z,98161.78
2019-05-29T09:13:50.412Z,98163.87
2019-05-29T09:16:22.810Z,98169.91
2019-05-29T09:18:55.240Z,98175.88
2019-05-29T09:21:27.983Z,98175.31
2019-05-29T09:24:00.361Z,98179.06
2019-05-29T09:26:33.551Z,98184.51
2019-05-29T09:29:06.054Z,98179.39
2019-05-29T09:31:39.379Z,98180.07
2019-05-29T09:34:13.918Z,98189.96
2019-05-29T09:36:47.910Z,98192.50
2019-05-29T09:39:21.048Z,98196.09
2019-05-29T09:41:53.758Z,98193.73
2019-05-29T09:44:37.499Z,98199.03
2019-05-29T09:47:00.402Z,98196.52
2019-05-29T09:49:32.690Z,98200.00
2019-05-29T09:52:05.554Z,98205.67
2019-05-29T09:54:38.730Z,98202.27
2019-05-29T09:57:15.249Z,98204.48
2019-05-29T09:59:45.378Z,98208.70
2019-05-29T10:02:18.142Z,98205.95
2019-05-29T10:04:50.747Z,98207.12
2019-05-29T10:07:23.136Z,98212.44
2019-05-29T10:09:56.851Z,98216.55
2019-05-29T10:12:29.340Z,98217.27
2019-05-29T10:15:02.669Z,98216.10
2019-05-29T10:17:35.157Z,98224.18
2019-05-29T10:20:08.447Z,98219.80
2019-05-29T10:22:40.826Z,98226.16
2019-05-29T10:25:14.927Z,98228.61
2019-05-29T10:27:47.391Z,98230.78
2019-05-29T10:30:20.951Z,98231.66
2019-05-29T10:32:53.235Z,98230.72
2019-05-29T10:35:26.209Z,98236.32
2019-05-29T10:37:58.812Z,98244.19
2019-05-29T10:40:31.538Z,98241.44
2019-05-29T10:43:04.226Z,98238.05
2019-05-29T10:45:37.088Z,98240.98
2019-05-29T10:48:09.966Z,98246.11
2019-05-29T10:50:43.526Z,98249.58
2019-05-29T10:53:15.810Z,98247.94
2019-05-29T10:55:48.634Z,98250.95
2019-05-29T10:58:20.931Z,98253.16
2019-05-29T11:00:55.491Z,98251.77
2019-05-29T11:03:28.023Z,98253.76
2019-05-29T11:06:00.761Z,98253.85
2019-05-29T11:08:33.391Z,98255.27
2019-05-29T11:11:05.766Z,98258.57
2019-05-29T11:13:38.053Z,98255.70
2019-05-29T11:16:10.384Z,98258.64
2019-05-29T11:18:43.123Z,98260.71
2019-05-29T11:21:15.751Z,98260.88
2019-05-29T11:23:48.034Z,98266.22
2019-05-29T11:26:20.428Z,98268.94
2019-05-29T11:28:54.436Z,98264.95
2019-05-29T11:31:26.772Z,98270.03
2019-05-29T11:33:59.505Z,98265.38
2019-05-29T11:36:32.164Z,98269.58
2019-05-29T11:39:06.455Z,98274.07
2019-05-29T11:41:39.661Z,98274.62
2019-05-29T11:44:12.397Z,98278.44
2019-05-29T11:46:45.474Z,98280.80
2019-05-29T11:49:17.755Z,98286.20
2019-05-29T11:51:51.565Z,98286.45
2019-05-29T11:54:24.399Z,98283.06
2019-05-29T11:56:57.338Z,98282.94
2019-05-29T11:59:30.161Z,98281.61
2019-05-29T12:02:03.387Z,98283.30
2019-05-29T12:04:35.863Z,98279.41
2019-05-29T12:07:08.257Z,98280.41
2019-05-29T12:09:41.056Z,98278.70
2019-05-29T12:12:13.336Z,98278.25
2019-05-29T12:15:07.952Z,98276.48
2019-05-29T12:17:19.775Z,98265.67
2019-05-29T12:19:54.010Z,98266.06
2019-05-29T12:22:26.952Z,98263.23
2019-05-29T12:25:00.576Z,98276.64
2019-05-29T12:27:33.287Z,98270.39
2019-05-29T12:30:08.646Z,98268.85
2019-05-29T12:32:41.271Z,98267.08
2019-05-29T12:35:14.313Z,98261.84
2019-05-29T12:37:47.069Z,98263.36
2019-05-29T12:40:20.621Z,98265.95
2019-05-29T12:42:55.667Z,98263.27
2019-05-29T12:45:28.287Z,98267.40
2019-05-29T12:48:04.382Z,98265.03
2019-05-29T12:50:35.050Z,98265.75
2019-05-29T12:53:07.765Z,98271.89
2019-05-29T12:55:40.239Z,98270.73
2019-05-29T12:58:12.626Z,98266.05
2019-05-29T13:00:45.802Z,98276.83
2019-05-29T13:03:18.110Z,98268.82
2019-05-29T13:05:50.477Z,98275.41
2019-05-29T13:08:23.669Z,98270.47
2019-05-29T13:10:56.405Z,98269.05
2019-05-29T13:13:29.041Z,98273.76
2019-05-29T13:16:02.884Z,98271.77
2019-05-29T13:18:35.379Z,98267.84
2019-05-29T13:21:08.089Z,98267.43
2019-05-29T13:23:45.114Z,98267.75
2019-05-29T13:26:14.490Z,98276.70
2019-05-29T13:28:46.785Z,98265.62
2019-05-29T13:31:19.970Z,98269.30
2019-05-29T13:33:52.252Z,98268.03
2019-05-29T13:36:25.003Z,98268.41
2019-05-29T13:38:58.060Z,98268.30
2019-05-29T13:41:30.862Z,98267.60
2019-05-29T13:44:04.775Z,98265.80
2019-05-29T13:46:37.209Z,98270.16
2019-05-29T13:49:09.505Z,98270.52
2019-05-29T13:51:41.789Z,98271.30
2019-05-29T13:54:17.803Z,98267.20
2019-05-29T13:56:49.211Z,98274.40
2019-05-29T13:59:21.474Z,98273.28
2019-05-29T14:01:53.769Z,98268.83
2019-05-29T14:04:26.518Z,98273.53
2019-05-29T14:07:00.294Z,98276.83
2019-05-29T14:09:33.078Z,98277.82
2019-05-29T14:12:07.253Z,98284.08
2019-05-29T14:14:40.791Z,98279.03
2019-05-29T14:17:13.647Z,98279.59
2019-05-29T14:19:47.087Z,98279.17
2019-05-29T14:22:19.413Z,98277.75
2019-05-29T14:24:52.129Z,98275.92
2019-05-29T14:27:24.445Z,98278.98
2019-05-29T14:29:57.407Z,98273.61
2019-05-29T14:32:29.705Z,98270.27
2019-05-29T14:35:04.292Z,98271.64
2019-05-29T14:37:36.604Z,98273.73
2019-05-29T14:40:11.902Z,98274.66
2019-05-29T14:42:44.752Z,98272.13
2019-05-29T14:45:17.735Z,98271.39
2019-05-29T14:47:50.481Z,98271.72
2019-05-29T14:50:23.078Z,98276.28
2019-05-29T14:52:55.367Z,98277.89
2019-05-29T14:55:28.130Z,98273.55
2019-05-29T14:58:00.846Z,98277.82
2019-05-29T15:00:33.345Z,98291.59
2019-05-29T15:03:07.258Z,98289.96
2019-05-29T15:05:40.086Z,98289.05
2019-05-29T15:08:13.991Z,98297.30
2019-05-29T15:10:46.928Z,98294.30
2019-05-29T15:13:19.175Z,98297.83
2019-05-29T15:15:51.922Z,98301.77
2019-05-29T15:18:24.547Z,98311.31
2019-05-29T15:20:57.932Z,98314.88
2019-05-29T15:23:30.220Z,98316.91
2019-05-29T15:26:03.302Z,98319.77
2019-05-29T15:28:36.907Z,98320.73
2019-05-29T15:31:10.436Z,98322.80
2019-05-29T15:33:42.780Z,98325.36
2019-05-29T15:36:15.172Z,98319.75
2019-05-29T15:38:47.455Z,98325.94
2019-05-29T15:41:19.785Z,98326.06
2019-05-29T15:43:52.123Z,98326.19
2019-05-29T15:46:24.756Z,98329.82
2019-05-29T15:48:57.820Z,98329.66
2019-05-29T15:51:30.667Z,98325.77
2019-05-29T15:54:03.298Z,98326.45
2019-05-29T15:56:35.578Z,98326.20
2019-05-29T15:59:09.949Z,98327.77
2019-05-29T16:01:42.757Z,98331.58
2019-05-29T16:04:15.803Z,98327.32
2019-05-29T16:06:48.544Z,98331.44
2019-05-29T16:09:21.276Z,98337.44
2019-05-29T16:11:54.014Z,98330.72
2019-05-29T16:14:26.722Z,98333.94
2019-05-29T16:16:59.347Z,98334.70
2019-05-29T16:19:31.970Z,98335.94
2019-05-29T16:22:05.057Z,98336.34
2019-05-29T16:24:38.220Z,98336.84
2019-05-29T16:27:10.668Z,98340.78
2019-05-29T16:29:43.196Z,98335.81
2019-05-29T16:32:16.122Z,98338.05
2019-05-29T16:34:48.832Z,98339.41
2019-05-29T16:37:21.972Z,98342.42
2019-05-29T16:39:54.872Z,98348.75
2019-05-29T16:42:27.621Z,98355.70
2019-05-29T16:45:00.353Z,98353.69
2019-05-29T16:47:32.984Z,98354.56
2019-05-29T16:50:06.036Z,98355.61
2019-05-29T16:52:38.774Z,98356.70
2019-05-29T16:55:13.018Z,98358.45
2019-05-29T16:57:46.164Z,98358.73
2019-05-29T17:00:21.802Z,98364.61
2019-05-29T17:02:54.317Z,98366.89
2019-05-29T17:05:28.041Z,98369.22
2019-05-29T17:08:00.968Z,98361.73
2019-05-29T17:10:42.118Z,98364.16
2019-05-29T17:13:14.696Z,98365.48
2019-05-29T17:15:49.185Z,98365.33
2019-05-29T17:18:22.748Z,98365.92
2019-05-29T17:20:55.684Z,98363.11
2019-05-29T17:23:27.968Z,98365.25
2019-05-29T17:26:10.128Z,98363.77
2019-05-29T17:28:35.078Z,98361.22
2019-05-29T17:31:07.388Z,98366.55
2019-05-29T17:33:39.688Z,98366.55
2019-05-29T17:36:11.983Z,98370.81
2019-05-29T17:38:45.715Z,98367.50
2019-05-29T17:41:19.350Z,98368.16
2019-05-29T17:43:51.603Z,98369.05
2019-05-29T17:46:25.854Z,98370.70
2019-05-29T17:49:00.060Z,98370.84
2019-05-29T17:51:32.814Z,98370.35
2019-05-29T17:54:06.020Z,98373.73
2019-05-29T17:56:38.293Z,98376.08
2019-05-29T17:59:10.923Z,98381.36
2019-05-29T18:01:43.202Z,98388.16
2019-05-29T18:04:15.970Z,98388.77
2019-05-29T18:06:49.182Z,98394.91
2019-05-29T18:09:25.570Z,98395.62
2019-05-29T18:11:55.882Z,98395.89
2019-05-29T18:14:29.066Z,98396.71
2019-05-29T18:17:01.814Z,98398.22
2019-05-29T18:19:34.281Z,98402.02
2019-05-29T18:22:07.241Z,98405.78
2019-05-29T18:24:39.980Z,98407.18
2019-05-29T18:27:12.714Z,98406.18
2019-05-29T18:29:45.336Z,98406.55
2019-05-29T18:32:18.563Z,98410.99
2019-05-29T18:34:55.372Z,98408.14
2019-05-29T18:37:26.250Z,98411.42
2019-05-29T18:39:59.375Z,98413.05
2019-05-29T18:42:32.891Z,98417.34
2019-05-29T18:45:19.664Z,98424.57
2019-05-29T18:47:40.631Z,98422.37
2019-05-29T18:50:14.104Z,98426.58
2019-05-29T18:52:46.410Z,98435.07
2019-05-29T18:55:19.304Z,98437.70
2019-05-29T18:57:52.260Z,98440.45
2019-05-29T19:00:25.531Z,98443.05
2019-05-29T19:02:58.726Z,98445.63
2019-05-29T19:05:31.915Z,98444.98
2019-05-29T19:08:04.251Z,98453.83
2019-05-29T19:10:36.652Z,98459.63
2019-05-29T19:13:09.726Z,98461.80
2019-05-29T19:15:42.469Z,98470.41
2019-05-29T19:18:15.665Z,98468.52
2019-05-29T19:20:48.884Z,98475.08
2019-05-29T19:23:22.579Z,98479.89
2019-05-29T19:25:55.846Z,98481.87
2019-05-29T19:28:29.369Z,98484.94
2019-05-29T19:31:02.111Z,98494.47
2019-05-29T19:33:34.403Z,98494.00
2019-05-29T19:36:07.351Z,98495.11
2019-05-29T19:38:39.632Z,98505.86
2019-05-29T19:41:12.836Z,98501.79
2019-05-29T19:43:45.116Z,98515.03
2019-05-29T19:46:17.837Z,98516.67
2019-05-29T19:48:50.220Z,98520.06
2019-05-29T19:51:23.338Z,98522.70
2019-05-29T19:53:55.999Z,98524.43
2019-05-29T19:56:29.941Z,98531.74
2019-05-29T19:59:02.680Z,98531.02
2019-05-29T20:01:39.022Z,98532.36
2019-05-29T20:04:09.764Z,98537.66
2019-05-29T20:06:42.716Z,98542.60
2019-05-29T20:09:15.327Z,98550.66
2019-05-29T20:11:48.400Z,98553.60
2019-05-29T20:14:21.347Z,98557.61
2019-05-29T20:16:54.426Z,98557.48
2019-05-29T20:19:28.163Z,98562.14
2019-05-29T20:22:00.972Z,98562.45
2019-05-29T20:24:34.896Z,98563.39
2019-05-29T20:27:07.828Z,98564.06
2019-05-29T20:29:43.662Z,98565.09
2019-05-29T20:32:16.044Z,98573.75
2019-05-29T20:34:48.339Z,98579.00
2019-05-29T20:37:21.847Z,98575.37
2019-05-29T20:39:55.319Z,98573.43
2019-05-29T20:42:27.451Z,98577.89
2019-05-29T20:45:00.386Z,98579.72
2019-05-29T20:47:33.617Z,98584.48
2019-05-29T20:50:06.135Z,98583.39
2019-05-29T20:52:39.463Z,98584.86
2019-05-29T20:55:12.506Z,98589.52
2019-05-29T20:57:44.638Z,98595.29
2019-05-29T21:00:18.654Z,98601.05
2019-05-29T21:02:50.913Z,98603.25
2019-05-29T21:05:24.198Z,98607.63
2019-05-29T21:07:57.282Z,98604.34
2019-05-29T21:10:30.448Z,98605.18
2019-05-29T21:13:02.739Z,98604.19
2019-05-29T21:15:35.596Z,98611.23
2019-05-29T21:18:07.864Z,98617.12
2019-05-29T21:20:40.507Z,98617.96
2019-05-29T21:23:12.729Z,98613.67
2019-05-29T21:25:45.041Z,98616.84
2019-05-29T21:28:18.114Z,98618.64
2019-05-29T21:30:51.481Z,98622.45
2019-05-29T21:33:24.403Z,98619.73
2019-05-29T21:35:56.540Z,98620.53
2019-05-29T21:38:30.371Z,98625.16
2019-05-29T21:41:02.957Z,98630.45
2019-05-29T21:43:36.461Z,98628.34
2019-05-29T21:46:08.642Z,98627.28
2019-05-29T21:48:41.216Z,98623.18
2019-05-29T21:51:14.123Z,98629.20
2019-05-29T21:53:47.612Z,98632.55
2019-05-29T21:56:20.589Z,98633.76
2019-05-29T21:59:03.203Z,98634.21
2019-05-29T22:01:28.319Z,98639.05
2019-05-29T22:04:01.051Z,98639.59
2019-05-29T22:06:33.966Z,98633.98
2019-05-29T22:09:12.846Z,98635.59
2019-05-29T22:11:45.207Z,98635.14
2019-05-29T22:14:17.664Z,98638.52
2019-05-29T22:16:50.891Z,98639.27
2019-05-29T22:19:23.958Z,98639.24
2019-05-29T22:21:57.083Z,98639.09
2019-05-29T22:24:29.357Z,98644.14
2019-05-29T22:27:02.273Z,98643.30
2019-05-29T22:29:34.496Z,98646.31
2019-05-29T22:32:06.721Z,98638.12
2019-05-29T22:34:39.183Z,98639.95
2019-05-29T22:37:11.604Z,98645.47
2019-05-29T22:39:43.733Z,98646.70
2019-05-29T22:42:15.859Z,98646.97
2019-05-29T22:44:47.986Z,98648.55
2019-05-29T22:47:20.108Z,98651.14
2019-05-29T22:49:53.974Z,98651.92
2019-05-29T22:52:26.654Z,98649.82
2019-05-29T22:55:00.000Z,98646.70
2019-05-29T22:57:33.189Z,98646.09
2019-05-29T23:00:07.562Z,98648.22
2019-05-29T23:02:40.590Z,98649.72
2019-05-29T23:05:12.921Z,98647.88
2019-05-29T23:07:45.488Z,98650.80
2019-05-29T23:10:19.491Z,98643.91
2019-05-29T23:12:52.939Z,98649.08
2019-05-29T23:15:25.499Z,98647.33
2019-05-29T23:17:58.568Z,98654.31
2019-05-29T23:20:30.777Z,98654.14
2019-05-29T23:23:03.101Z,98653.27
2019-05-29T23:25:35.604Z,98649.59
2019-05-29T23:28:07.835Z,98651.84
2019-05-29T23:30:40.056Z,98654.03
2019-05-29T23:33:12.637Z,98657.92
2019-05-29T23:35:45.218Z,98656.52
2019-05-29T23:38:17.343Z,98662.84
2019-05-29T23:40:49.471Z,98661.34
2019-05-29T23:43:22.048Z,98660.41
2019-05-29T23:45:55.332Z,98666.26
2019-05-29T23:48:27.493Z,98665.30
2019-05-29T23:50:59.623Z,98672.99
2019-05-29T23:53:32.196Z,98665.70
2019-05-29T23:56:04.419Z,98662.60
2019-05-29T23:58:37.581Z,98662.09
